createdAt,value
2022-10-20T00:04:19.670Z,100565.75
2022-10-20T00:06:47.651Z,100568.84
2022-10-20T00:09:16.601Z,100563.97
2022-10-20T00:11:45.886Z,100571.16
2022-10-20T00:14:13.686Z,100562.25
2022-10-20T00:16:41.511Z,100570.44
2022-10-20T00:19:09.148Z,100559.44
2022-10-20T00:21:36.727Z,100559.31
2022-10-20T00:24:04.721Z,100548.44
2022-10-20T00:26:34.528Z,100546.59
2022-10-20T00:29:03.466Z,100545.59
2022-10-20T00:31:31.788Z,100560.41
2022-10-20T00:33:59.330Z,100553.06
2022-10-20T00:36:27.008Z,100536.34
2022-10-20T00:38:58.988Z,100527.13
2022-10-20T00:41:26.950Z,100529.06
2022-10-20T00:43:57.996Z,100527.53
2022-10-20T00:46:29.638Z,100518.69
2022-10-20T00:48:59.577Z,100508.94
2022-10-20T00:51:30.070Z,100507.47
2022-10-20T00:54:04.328Z,100499.84
2022-10-20T00:56:32.826Z,100509.53
2022-10-20T00:59:03.480Z,100503.34
2022-10-20T01:01:31.231Z,100489.78
2022-10-20T01:03:59.237Z,100482.41
2022-10-20T01:06:26.853Z,100482.53
2022-10-20T01:08:55.583Z,100480.97
2022-10-20T01:11:33.225Z,100480.81
2022-10-20T01:14:15.399Z,100479.34
2022-10-20T01:16:52.932Z,100481.69
2022-10-20T01:19:55.810Z,100465.84
2022-10-20T01:22:37.457Z,100466.31
2022-10-20T01:25:18.985Z,100472.03
2022-10-20T01:27:51.622Z,100473.97
2022-10-20T01:30:21.179Z,100466.19
2022-10-20T01:33:02.528Z,100468.03
2022-10-20T01:35:40.682Z,100467.00
2022-10-20T01:38:17.028Z,100459.66
2022-10-20T01:40:49.524Z,100462.34
2022-10-20T01:43:22.771Z,100464.00
2022-10-20T01:45:53.528Z,100465.84
2022-10-20T01:48:24.742Z,100459.19
2022-10-20T01:50:52.991Z,100451.34
2022-10-20T01:53:21.360Z,100447.16
2022-10-20T01:55:51.909Z,100445.97
2022-10-20T01:58:45.165Z,100442.94
2022-10-20T02:01:21.366Z,100451.47
2022-10-20T02:03:54.082Z,100443.28
2022-10-20T02:06:32.349Z,100441.91
2022-10-20T02:09:02.443Z,100445.19
2022-10-20T02:11:39.548Z,100452.72
2022-10-20T02:14:11.181Z,100451.06
2022-10-20T02:16:44.113Z,100442.03
2022-10-20T02:19:14.325Z,100436.03
2022-10-20T02:21:41.974Z,100435.00
2022-10-20T02:24:10.878Z,100443.06
2022-10-20T02:26:41.087Z,100432.56
2022-10-20T02:29:14.907Z,100423.88
2022-10-20T02:31:43.745Z,100426.13
2022-10-20T02:34:12.113Z,100421.84
2022-10-20T02:36:41.547Z,100431.91
2022-10-20T02:39:09.874Z,100423.88
2022-10-20T02:41:38.098Z,100416.69
2022-10-20T02:44:05.831Z,100420.38
2022-10-20T02:46:34.843Z,100416.19
2022-10-20T02:49:02.476Z,100413.03
2022-10-20T02:51:30.083Z,100406.00
2022-10-20T02:53:57.933Z,100402.31
2022-10-20T02:56:27.613Z,100404.13
2022-10-20T02:58:57.857Z,100410.81
2022-10-20T03:01:25.861Z,100404.44
2022-10-20T03:03:58.558Z,100418.03
2022-10-20T03:06:26.763Z,100422.50
2022-10-20T03:08:54.508Z,100412.69
2022-10-20T03:11:22.215Z,100401.34
2022-10-20T03:13:49.868Z,100406.81
2022-10-20T03:16:17.563Z,100404.34
2022-10-20T03:18:45.161Z,100397.72
2022-10-20T03:21:14.028Z,100399.84
2022-10-20T03:23:41.674Z,100400.00
2022-10-20T03:26:11.410Z,100408.22
2022-10-20T03:28:40.490Z,100406.50
2022-10-20T03:31:08.816Z,100396.50
2022-10-20T03:33:36.379Z,100392.63
2022-10-20T03:36:04.644Z,100391.00
2022-10-20T03:38:33.592Z,100393.03
2022-10-20T03:43:33.745Z,100371.13
2022-10-20T03:46:05.515Z,100358.31
2022-10-20T03:48:33.692Z,100362.50
2022-10-20T03:51:02.278Z,100366.88
2022-10-20T03:53:30.568Z,100370.84
2022-10-20T03:55:59.806Z,100378.38
2022-10-20T03:58:27.324Z,100378.31
2022-10-20T04:00:55.400Z,100374.34
2022-10-20T04:03:22.939Z,100374.97
2022-10-20T04:05:50.808Z,100372.47
2022-10-20T04:08:18.367Z,100382.44
2022-10-20T04:10:45.947Z,100383.81
2022-10-20T04:13:14.869Z,100371.81
2022-10-20T04:15:42.476Z,100355.16
2022-10-20T04:18:10.148Z,100357.06
2022-10-20T04:20:39.405Z,100345.59
2022-10-20T04:23:09.644Z,100331.34
2022-10-20T04:25:45.312Z,100327.03
2022-10-20T04:28:13.077Z,100330.09
2022-10-20T04:30:42.521Z,100316.09
2022-10-20T04:33:10.458Z,100322.69
2022-10-20T04:35:38.049Z,100319.84
2022-10-20T04:38:06.441Z,100329.50
2022-10-20T04:40:34.256Z,100326.00
2022-10-20T04:43:02.268Z,100328.53
2022-10-20T04:45:29.941Z,100324.53
2022-10-20T04:47:58.877Z,100308.81
2022-10-20T04:50:26.539Z,100307.81
2022-10-20T04:52:54.116Z,100310.25
2022-10-20T04:55:21.811Z,100303.63
2022-10-20T04:57:49.592Z,100308.41
2022-10-20T05:00:17.345Z,100303.97
2022-10-20T05:02:45.050Z,100293.75
2022-10-20T05:05:14.293Z,100287.75
2022-10-20T05:07:41.809Z,100288.13
2022-10-20T05:10:09.995Z,100285.09
2022-10-20T05:12:37.884Z,100274.75
2022-10-20T05:15:06.630Z,100265.03
2022-10-20T05:17:34.171Z,100266.56
2022-10-20T05:20:01.727Z,100254.19
2022-10-20T05:22:31.745Z,100254.72
2022-10-20T05:25:12.728Z,100260.41
2022-10-20T05:27:46.812Z,100252.88
2022-10-20T05:30:14.358Z,100250.09
2022-10-20T05:32:41.900Z,100255.91
2022-10-20T05:35:10.031Z,100252.44
2022-10-20T05:37:38.930Z,100254.66
2022-10-20T05:40:08.216Z,100248.31
2022-10-20T05:42:36.862Z,100240.22
2022-10-20T05:45:05.360Z,100244.81
2022-10-20T05:47:33.267Z,100242.13
2022-10-20T05:50:00.778Z,100249.97
2022-10-20T05:52:28.601Z,100246.28
2022-10-20T05:54:57.512Z,100241.41
2022-10-20T05:57:25.099Z,100240.06
2022-10-20T05:59:52.652Z,100235.81
2022-10-20T06:02:20.814Z,100231.72
2022-10-20T06:04:48.352Z,100235.97
2022-10-20T06:07:16.187Z,100233.31
2022-10-20T06:09:43.708Z,100241.16
2022-10-20T06:12:12.597Z,100244.78
2022-10-20T06:14:40.221Z,100249.41
2022-10-20T06:17:07.762Z,100248.53
2022-10-20T06:19:35.380Z,100244.56
2022-10-20T06:22:05.940Z,100239.31
2022-10-20T06:24:34.642Z,100247.53
2022-10-20T06:27:02.291Z,100252.69
2022-10-20T06:29:31.197Z,100249.31
2022-10-20T06:31:58.703Z,100250.53
2022-10-20T06:34:27.256Z,100265.94
2022-10-20T06:36:54.874Z,100273.31
2022-10-20T06:39:24.537Z,100261.78
2022-10-20T06:41:53.353Z,100259.09
2022-10-20T06:44:22.642Z,100265.19
2022-10-20T06:46:52.684Z,100272.66
2022-10-20T06:49:20.772Z,100264.09
2022-10-20T06:51:48.626Z,100270.56
2022-10-20T06:54:16.251Z,100274.44
2022-10-20T06:56:43.771Z,100283.47
2022-10-20T06:59:13.292Z,100282.19
2022-10-20T07:01:42.143Z,100279.25
2022-10-20T07:04:15.328Z,100295.75
2022-10-20T07:06:45.415Z,100313.41
2022-10-20T07:09:15.113Z,100313.97
2022-10-20T07:11:43.125Z,100302.25
2022-10-20T07:14:12.406Z,100296.41
2022-10-20T07:16:40.115Z,100281.16
2022-10-20T07:19:07.768Z,100280.44
2022-10-20T07:21:40.199Z,100290.31
2022-10-20T07:24:09.621Z,100309.44
2022-10-20T07:26:39.242Z,100295.56
2022-10-20T07:29:07.283Z,100291.63
2022-10-20T07:31:37.686Z,100288.56
2022-10-20T07:34:20.407Z,100291.97
2022-10-20T07:36:54.318Z,100284.28
2022-10-20T07:39:22.115Z,100291.31
2022-10-20T07:41:49.698Z,100292.38
2022-10-20T07:44:18.053Z,100276.16
2022-10-20T07:46:45.831Z,100272.72
2022-10-20T07:52:02.407Z,100262.06
2022-10-20T07:54:30.037Z,100268.31
2022-10-20T07:56:57.577Z,100258.34
2022-10-20T07:59:25.337Z,100256.75
2022-10-20T08:01:57.392Z,100268.97
2022-10-20T08:04:26.288Z,100271.50
2022-10-20T08:06:53.919Z,100266.97
2022-10-20T08:09:22.832Z,100258.41
2022-10-20T08:11:54.604Z,100254.09
2022-10-20T08:14:23.929Z,100260.91
2022-10-20T08:19:48.223Z,100257.94
2022-10-20T08:22:16.173Z,100264.44
2022-10-20T08:24:45.111Z,100265.34
2022-10-20T08:27:12.709Z,100262.31
2022-10-20T08:29:40.399Z,100248.69
2022-10-20T08:32:08.281Z,100250.59
2022-10-20T08:34:35.902Z,100251.53
2022-10-20T08:37:03.600Z,100240.78
2022-10-20T08:39:31.326Z,100248.75
2022-10-20T08:42:08.507Z,100259.00
2022-10-20T08:44:38.258Z,100234.72
2022-10-20T08:47:15.127Z,100240.59
2022-10-20T08:49:45.700Z,100236.69
2022-10-20T08:52:15.789Z,100233.00
2022-10-20T08:54:43.728Z,100244.03
2022-10-20T08:57:23.258Z,100243.00
2022-10-20T08:59:53.410Z,100238.78
2022-10-20T09:02:21.365Z,100218.38
2022-10-20T09:04:52.600Z,100220.22
2022-10-20T09:07:26.567Z,100225.53
2022-10-20T09:09:58.874Z,100232.56
2022-10-20T09:12:31.120Z,100233.19
2022-10-20T09:14:58.955Z,100198.19
2022-10-20T09:17:26.645Z,100203.22
2022-10-20T09:19:58.723Z,100220.78
2022-10-20T09:22:33.347Z,100213.66
2022-10-20T09:25:03.202Z,100218.94
2022-10-20T09:27:35.165Z,100230.09
2022-10-20T09:30:15.603Z,100228.13
2022-10-20T09:32:56.300Z,100225.88
2022-10-20T09:35:27.004Z,100220.94
2022-10-20T09:37:59.441Z,100206.28
2022-10-20T09:40:27.843Z,100208.81
2022-10-20T09:43:00.043Z,100191.78
2022-10-20T09:45:30.529Z,100204.66
2022-10-20T09:48:04.277Z,100214.41
2022-10-20T09:50:34.719Z,100216.91
2022-10-20T09:53:05.802Z,100240.69
2022-10-20T09:55:36.054Z,100231.56
2022-10-20T09:58:06.861Z,100239.88
2022-10-20T10:00:39.444Z,100225.34
2022-10-20T10:03:20.838Z,100221.69
2022-10-20T10:05:52.892Z,100227.66
2022-10-20T10:08:22.652Z,100221.88
2022-10-20T10:11:00.637Z,100219.19
2022-10-20T10:13:32.125Z,100217.09
2022-10-20T10:16:02.640Z,100199.09
2022-10-20T10:18:30.795Z,100198.91
2022-10-20T10:21:01.160Z,100201.97
2022-10-20T10:23:30.151Z,100217.47
2022-10-20T10:26:02.023Z,100212.91
2022-10-20T10:28:38.490Z,100216.06
2022-10-20T10:31:22.327Z,100212.53
2022-10-20T10:33:52.870Z,100211.72
2022-10-20T10:36:34.167Z,100197.19
2022-10-20T10:39:03.188Z,100192.66
2022-10-20T10:41:51.735Z,100199.50
2022-10-20T10:44:34.790Z,100194.13
2022-10-20T10:47:15.061Z,100178.38
2022-10-20T10:49:54.710Z,100162.38
2022-10-20T10:52:35.921Z,100174.84
2022-10-20T10:55:30.549Z,100165.75
2022-10-20T11:00:56.913Z,100160.38
2022-10-20T11:04:03.887Z,100164.06
2022-10-20T11:06:38.133Z,100146.28
2022-10-20T11:09:20.806Z,100147.13
2022-10-20T11:12:15.977Z,100152.09
2022-10-20T11:14:58.438Z,100152.50
2022-10-20T11:17:43.947Z,100132.63
2022-10-20T11:20:27.449Z,100117.31
2022-10-20T11:23:22.776Z,100087.69
2022-10-20T11:25:57.173Z,100103.63
2022-10-20T11:28:32.177Z,100110.00
2022-10-20T11:31:00.407Z,100116.44
2022-10-20T11:33:39.330Z,100122.94
2022-10-20T11:36:15.872Z,100120.84
2022-10-20T11:38:47.888Z,100122.94
2022-10-20T11:41:19.253Z,100121.38
2022-10-20T11:43:54.078Z,100113.38
2022-10-20T11:46:26.667Z,100112.75
2022-10-20T11:49:00.219Z,100107.75
2022-10-20T11:51:56.510Z,100102.34
2022-10-20T11:54:44.877Z,100095.53
2022-10-20T11:57:24.389Z,100115.00
2022-10-20T12:00:11.598Z,100109.78
2022-10-20T12:03:13.399Z,100107.69
2022-10-20T12:06:09.957Z,100114.16
2022-10-20T12:09:21.660Z,100120.97
2022-10-20T12:11:54.737Z,100111.72
2022-10-20T12:14:28.635Z,100115.31
2022-10-20T12:17:21.854Z,100117.03
2022-10-20T12:19:51.603Z,100123.59
2022-10-20T12:22:40.665Z,100104.72
2022-10-20T12:25:36.810Z,100108.16
2022-10-20T12:28:43.114Z,100107.63
2022-10-20T12:31:10.687Z,100112.13
2022-10-20T12:33:42.058Z,100106.91
2022-10-20T12:36:34.294Z,100114.84
2022-10-20T12:39:16.966Z,100110.91
2022-10-20T12:41:56.528Z,100100.44
2022-10-20T12:44:24.688Z,100099.81
2022-10-20T12:46:59.038Z,100110.16
2022-10-20T12:49:31.403Z,100107.22
2022-10-20T12:52:00.445Z,100096.38
2022-10-20T12:54:35.586Z,100082.47
2022-10-20T12:57:06.516Z,100055.78
2022-10-20T12:59:40.242Z,100081.56
2022-10-20T13:02:47.724Z,100078.88
2022-10-20T13:05:49.153Z,100083.81
2022-10-20T13:08:29.732Z,100096.56
2022-10-20T13:11:41.746Z,100096.44
2022-10-20T13:14:33.294Z,100104.97
2022-10-20T13:17:07.541Z,100102.84
2022-10-20T13:19:44.468Z,100097.81
2022-10-20T13:22:37.866Z,100093.31
2022-10-20T13:25:14.076Z,100090.25
2022-10-20T13:27:43.057Z,100087.19
2022-10-20T13:30:19.262Z,100082.09
2022-10-20T13:33:11.202Z,100079.69
2022-10-20T13:35:51.647Z,100078.94
2022-10-20T13:38:25.352Z,100078.47
2022-10-20T13:43:39.578Z,100062.50
2022-10-20T13:46:22.167Z,100038.53
2022-10-20T13:49:13.322Z,100043.09
2022-10-20T13:51:45.139Z,100045.59
2022-10-20T13:54:22.595Z,100045.47
2022-10-20T13:56:51.231Z,100049.97
2022-10-20T13:59:24.730Z,100053.06
2022-10-20T14:01:55.209Z,100045.59
2022-10-20T14:04:28.087Z,100057.38
2022-10-20T14:06:56.381Z,100054.69
2022-10-20T14:09:26.074Z,100039.16
2022-10-20T14:11:57.094Z,100046.63
2022-10-20T14:14:28.245Z,100044.13
2022-10-20T14:16:58.454Z,100035.09
2022-10-20T14:19:28.095Z,100028.75
2022-10-20T14:21:57.813Z,100027.22
2022-10-20T14:24:31.953Z,100058.69
2022-10-20T14:27:01.552Z,100061.13
2022-10-20T14:29:35.530Z,100065.44
2022-10-20T14:32:03.240Z,100064.38
2022-10-20T14:34:37.670Z,100064.56
2022-10-20T14:37:08.564Z,100058.13
2022-10-20T14:39:38.681Z,100057.34
2022-10-20T14:42:20.001Z,100063.00
2022-10-20T14:44:50.468Z,100078.13
2022-10-20T14:47:19.991Z,100084.53
2022-10-20T14:49:52.377Z,100084.03
2022-10-20T14:52:23.043Z,100085.69
2022-10-20T14:54:51.471Z,100065.63
2022-10-20T14:57:31.760Z,100056.59
2022-10-20T15:00:03.971Z,100046.44
2022-10-20T15:02:33.544Z,100048.91
2022-10-20T15:05:23.273Z,100051.00
2022-10-20T15:07:51.534Z,100055.16
2022-10-20T15:10:21.645Z,100063.50
2022-10-20T15:12:52.106Z,100049.63
2022-10-20T15:15:23.955Z,100057.47
2022-10-20T15:17:53.114Z,100057.25
2022-10-20T15:20:33.147Z,100056.25
2022-10-20T15:23:02.699Z,100051.88
2022-10-20T15:25:32.028Z,100044.88
2022-10-20T15:28:00.400Z,100046.31
2022-10-20T15:30:30.124Z,100049.25
2022-10-20T15:32:57.804Z,100050.47
2022-10-20T15:35:25.651Z,100046.31
2022-10-20T15:37:54.654Z,100038.47
2022-10-20T15:40:22.619Z,100019.00
2022-10-20T15:42:50.212Z,100015.69
2022-10-20T15:45:19.782Z,100003.69
2022-10-20T15:47:48.763Z,99994.19
2022-10-20T15:50:18.490Z,99995.44
2022-10-20T15:52:48.134Z,99986.56
2022-10-20T15:55:22.545Z,99990.69
2022-10-20T15:57:51.474Z,99986.94
2022-10-20T16:00:20.154Z,99996.66
2022-10-20T16:02:50.263Z,99985.91
2022-10-20T16:05:19.078Z,99998.09
2022-10-20T16:07:47.182Z,100000.97
2022-10-20T16:10:15.110Z,99983.78
2022-10-20T16:12:42.678Z,99976.41
2022-10-20T16:15:12.189Z,99962.28
2022-10-20T16:17:39.891Z,99960.19
2022-10-20T16:20:10.378Z,99952.56
2022-10-20T16:22:38.422Z,99965.81
2022-10-20T16:25:07.042Z,99964.75
2022-10-20T16:27:35.360Z,99956.47
2022-10-20T16:30:04.572Z,99951.09
2022-10-20T16:32:34.634Z,99949.72
2022-10-20T16:35:03.544Z,99968.53
2022-10-20T16:37:33.123Z,99975.00
2022-10-20T16:40:00.950Z,99978.91
2022-10-20T16:42:30.247Z,99986.56
2022-10-20T16:44:58.556Z,99988.19
2022-10-20T16:47:26.847Z,99986.53
2022-10-20T16:49:54.515Z,99989.84
2022-10-20T16:52:22.285Z,99973.91
2022-10-20T16:54:51.182Z,99959.44
2022-10-20T16:57:18.743Z,99953.22
2022-10-20T16:59:49.860Z,99947.25
2022-10-20T17:02:18.470Z,99945.19
2022-10-20T17:04:49.191Z,99939.41
2022-10-20T17:07:16.924Z,99933.63
2022-10-20T17:09:44.612Z,99940.88
2022-10-20T17:12:13.610Z,99946.25
2022-10-20T17:14:41.568Z,99945.41
2022-10-20T17:17:09.269Z,99944.38
2022-10-20T17:19:36.900Z,99954.06
2022-10-20T17:22:04.527Z,99973.91
2022-10-20T17:24:32.191Z,99983.03
2022-10-20T17:26:59.713Z,99980.91
2022-10-20T17:29:28.726Z,99981.56
2022-10-20T17:31:56.261Z,99988.81
2022-10-20T17:34:23.851Z,99997.69
2022-10-20T17:36:51.455Z,100000.56
2022-10-20T17:39:21.958Z,99994.97
2022-10-20T17:41:49.544Z,100000.19
2022-10-20T17:44:17.182Z,100001.66
2022-10-20T17:46:46.176Z,100011.75
2022-10-20T17:49:14.111Z,100003.09
2022-10-20T17:51:43.504Z,100001.00
2022-10-20T17:54:11.338Z,99999.97
2022-10-20T17:56:40.089Z,99996.44
2022-10-20T17:59:08.524Z,99977.41
2022-10-20T18:01:37.912Z,99961.69
2022-10-20T18:04:09.143Z,99938.97
2022-10-20T18:06:37.679Z,99914.78
2022-10-20T18:09:10.678Z,99899.88
2022-10-20T18:11:40.073Z,99876.94
2022-10-20T18:14:07.723Z,99823.81
2022-10-20T18:16:37.978Z,99802.91
2022-10-20T18:19:07.894Z,99814.72
2022-10-20T18:21:36.115Z,99887.47
2022-10-20T18:24:06.432Z,99946.19
2022-10-20T18:26:36.045Z,99938.72
2022-10-20T18:29:05.033Z,99913.66
2022-10-20T18:31:34.714Z,99926.06
2022-10-20T18:34:06.867Z,99957.94
2022-10-20T18:36:40.706Z,99945.09
2022-10-20T18:39:11.557Z,99933.88
2022-10-20T18:41:41.113Z,99917.59
2022-10-20T18:44:12.451Z,99939.50
2022-10-20T18:46:40.858Z,99945.09
2022-10-20T18:49:10.082Z,99938.84
2022-10-20T18:51:39.049Z,99932.63
2022-10-20T18:54:08.482Z,99945.25
2022-10-20T18:56:36.916Z,99932.41
2022-10-20T18:59:09.130Z,99944.81
2022-10-20T19:01:38.527Z,99962.00
2022-10-20T19:04:07.485Z,99956.00
2022-10-20T19:06:37.641Z,99936.72
2022-10-20T19:09:09.047Z,99932.78
2022-10-20T19:11:39.128Z,99944.34
2022-10-20T19:14:09.440Z,99948.09
2022-10-20T19:16:37.826Z,99939.19
2022-10-20T19:19:07.973Z,99927.38
2022-10-20T19:21:38.996Z,99919.75
2022-10-20T19:24:10.178Z,99928.06
2022-10-20T19:26:40.454Z,99911.31
2022-10-20T19:29:10.817Z,99894.41
2022-10-20T19:31:41.256Z,99904.13
2022-10-20T19:34:11.338Z,99911.38
2022-10-20T19:36:40.442Z,99921.03
2022-10-20T19:39:12.015Z,99921.25
2022-10-20T19:41:39.870Z,99919.38
2022-10-20T19:44:07.914Z,99918.13
2022-10-20T19:46:35.473Z,99902.78
2022-10-20T19:49:03.217Z,99909.22
2022-10-20T19:51:31.063Z,99906.97
2022-10-20T19:53:59.453Z,99897.19
2022-10-20T19:56:28.510Z,99880.81
2022-10-20T19:58:56.310Z,99863.91
2022-10-20T20:01:24.189Z,99854.31
2022-10-20T20:03:51.937Z,99859.28
2022-10-20T20:06:21.964Z,99860.16
2022-10-20T20:08:52.703Z,99847.56
2022-10-20T20:11:26.287Z,99844.88
2022-10-20T20:13:57.964Z,99840.31
2022-10-20T20:16:26.058Z,99845.97
2022-10-20T20:18:54.164Z,99826.47
2022-10-20T20:21:23.002Z,99823.53
2022-10-20T20:23:59.326Z,99833.72
2022-10-20T20:26:27.975Z,99845.97
2022-10-20T20:28:57.553Z,99855.69
2022-10-20T20:31:25.781Z,99866.03
2022-10-20T20:33:54.306Z,99877.84
2022-10-20T20:36:22.531Z,99875.97
2022-10-20T20:38:52.578Z,99870.19
2022-10-20T20:41:24.463Z,99869.97
2022-10-20T20:43:52.132Z,99874.09
2022-10-20T20:46:26.863Z,99855.72
2022-10-20T20:48:54.526Z,99857.34
2022-10-20T20:51:22.996Z,99856.53
2022-10-20T20:53:50.751Z,99871.41
2022-10-20T20:56:21.779Z,99873.50
2022-10-20T20:58:55.004Z,99869.34
2022-10-20T21:01:27.283Z,99849.47
2022-10-20T21:03:56.212Z,99855.50
2022-10-20T21:06:33.086Z,99844.69
2022-10-20T21:09:02.436Z,99847.63
2022-10-20T21:11:30.239Z,99850.72
2022-10-20T21:13:58.868Z,99857.34
2022-10-20T21:16:30.280Z,99854.03
2022-10-20T21:18:59.797Z,99847.84
2022-10-20T21:21:29.611Z,99838.94
2022-10-20T21:23:58.073Z,99839.09
2022-10-20T21:26:26.397Z,99831.41
2022-10-20T21:28:54.694Z,99831.69
2022-10-20T21:31:24.953Z,99843.28
2022-10-20T21:33:55.856Z,99852.34
2022-10-20T21:36:24.036Z,99854.81
2022-10-20T21:38:52.201Z,99849.41
2022-10-20T21:41:21.359Z,99845.28
2022-10-20T21:43:50.772Z,99832.00
2022-10-20T21:46:20.622Z,99834.28
2022-10-20T21:48:51.007Z,99837.00
2022-10-20T21:51:23.022Z,99821.22
2022-10-20T21:53:51.136Z,99810.91
2022-10-20T21:56:18.665Z,99819.78
2022-10-20T21:58:46.372Z,99813.97
2022-10-20T22:01:16.350Z,99818.31
2022-10-20T22:03:44.974Z,99824.53
2022-10-20T22:06:14.598Z,99819.94
2022-10-20T22:08:45.762Z,99812.50
2022-10-20T22:11:15.589Z,99810.84
2022-10-20T22:13:43.497Z,99803.31
2022-10-20T22:16:14.954Z,99806.31
2022-10-20T22:18:42.774Z,99820.53
2022-10-20T22:21:13.698Z,99812.66
2022-10-20T22:23:43.433Z,99820.53
2022-10-20T22:26:12.006Z,99807.47
2022-10-20T22:28:39.757Z,99807.72
2022-10-20T22:31:08.234Z,99796.72
2022-10-20T22:33:36.258Z,99802.03
2022-10-20T22:36:03.970Z,99812.00
2022-10-20T22:38:32.077Z,99808.50
2022-10-20T22:41:01.437Z,99807.06
2022-10-20T22:43:29.814Z,99805.81
2022-10-20T22:45:57.666Z,99804.94
2022-10-20T22:48:25.630Z,99793.34
2022-10-20T22:50:53.269Z,99794.69
2022-10-20T22:53:20.851Z,99797.91
2022-10-20T22:55:48.417Z,99800.38
2022-10-20T22:58:17.352Z,99803.66
2022-10-20T23:00:44.964Z,99806.97
2022-10-20T23:03:12.551Z,99799.31
2022-10-20T23:05:40.079Z,99800.38
2022-10-20T23:08:07.862Z,99797.84
2022-10-20T23:10:35.396Z,99799.09
2022-10-20T23:13:03.080Z,99802.63
2022-10-20T23:15:32.050Z,99815.16
2022-10-20T23:17:59.621Z,99811.06
2022-10-20T23:20:27.307Z,99810.84
2022-10-20T23:22:54.926Z,99817.63
2022-10-20T23:25:22.476Z,99807.50
2022-10-20T23:27:50.034Z,99811.91
2022-10-20T23:30:17.711Z,99816.22
2022-10-20T23:32:46.707Z,99804.03
2022-10-20T23:35:14.513Z,99811.84
2022-10-20T23:37:42.152Z,99813.28
2022-10-20T23:40:10.695Z,99820.09
2022-10-20T23:42:38.275Z,99821.91
2022-10-20T23:45:06.818Z,99824.59
2022-10-20T23:47:34.589Z,99836.44
2022-10-20T23:50:03.988Z,99825.19
2022-10-20T23:52:31.583Z,99832.09
2022-10-20T23:54:59.414Z,99824.22
2022-10-20T23:57:27.071Z,99824.47
2022-10-20T23:59:54.707Z,99812.00
